Time;durP1;ratioP1;P1;durP2;ratioP2;P2;SDS_P1;SDS_P2;PMS_P1;PMS_P2;Temp;Humidity;BMP_temperature;BMP_pressure;BME280_temperature;BME280_humidity;BME280_pressure;Samples;Min_cycle;Max_cycle;Signal;HPM_P1;HPM_P2
2021/09/30 00:00:21;;;;;;;2.87;0.70;;;;;;;;;;5044918;28;20447;-75
2021/09/30 00:02:53;;;;;;;2.63;0.90;;;;;;;;;;5074086;28;20475;-75
2021/09/30 00:05:19;;;;;;;1.30;0.60;;;;;;;;;;5073810;28;20877;-75
2021/09/30 00:07:45;;;;;;;1.77;0.70;;;;;;;;;;5073928;28;20392;-75
2021/09/30 00:10:18;;;;;;;11.50;1.43;;;8.50;1.00;;;;;;5073810;28;20445;-75
2021/09/30 00:12:49;;;;;;;3.73;0.80;;;;;;;;;;5074161;28;20848;-75
2021/09/30 00:18:37;;;;;;;1.63;0.73;;;;;;;;;;4992347;28;20417;-75
2021/09/30 00:35:03;;;;;;;12.20;1.40;;;;;;;;;;4972465;28;20458;-75
2021/09/30 01:34:12;;;;;;;1.90;0.80;;;7.20;1.00;;;;;;4956354;29;20422;-75
2021/09/30 02:18:43;;;;;;;4.83;1.33;;;6.70;1.00;;;;;;5035954;28;20418;-75
2021/09/30 02:58:13;;;;;;;6.40;1.33;;;;;;;;;;5035464;28;20920;-75
2021/09/30 03:00:40;;;;;;;2.47;1.10;;;;;;;;;;5036783;28;20834;-75
2021/09/30 03:03:09;;;;;;;2.13;1.10;;;6.60;1.00;;;;;;5053260;28;20790;-75
2021/09/30 03:05:35;;;;;;;3.10;1.23;;;;;;;;;;5045396;28;20423;-75
2021/09/30 03:08:05;;;;;;;2.17;0.90;;;;;;;;;;5035065;28;20384;-75
2021/09/30 03:10:32;;;;;;;2.67;1.43;;;6.50;1.00;;;;;;5054884;28;20437;-75
2021/09/30 03:12:59;;;;;;;6.60;1.80;;;6.50;1.00;;;;;;5047700;28;20431;-74
2021/09/30 03:15:38;;;;;;;9.13;2.07;;;6.50;1.00;;;;;;5042364;28;20445;-74
2021/09/30 03:18:50;;;;;;;2.27;1.17;;;6.50;1.00;;;;;;5034775;28;20925;-75
2021/09/30 03:23:48;;;;;;;1.97;1.20;;;6.50;1.00;;;;;;5034771;28;20395;-75
2021/09/30 03:26:25;;;;;;;3.00;1.05;;;;;;;;;;5034748;28;20426;-75
2021/09/30 03:29:06;;;;;;;6.00;1.30;;;6.40;1.00;;;;;;5034919;28;20157;-75
2021/09/30 03:31:36;;;;;;;10.07;2.00;;;;;;;;;;5053126;28;20523;-75
2021/09/30 03:34:02;;;;;;;2.20;1.10;;;6.40;1.00;;;;;;5054293;28;20393;-74
2021/09/30 03:36:29;;;;;;;1.80;1.13;;;;;;;;;;5054026;28;20386;-75
2021/09/30 03:38:59;;;;;;;3.77;1.20;;;;;;;;;;5054123;28;20410;-75
2021/09/30 03:41:25;;;;;;;6.33;1.50;;;;;;;;;;5053979;28;20481;-74
2021/09/30 03:43:53;;;;;;;4.07;1.33;;;;;;;;;;5044724;28;20758;-75
2021/09/30 03:46:23;;;;;;;3.70;1.20;;;;;;;;;;5050392;28;20501;-75
2021/09/30 03:48:55;;;;;;;5.13;1.33;;;;;;;;;;5052346;28;20418;-75
2021/09/30 03:54:22;;;;;;;7.60;1.60;;;;;;;;;;5034345;28;20425;-74
2021/09/30 03:57:24;;;;;;;5.53;3.47;;;;;;;;;;5034209;28;20401;-76
2021/09/30 03:59:50;;;;;;;9.10;2.27;;;;;;;;;;5034208;28;20418;-75
2021/09/30 04:02:16;;;;;;;5.13;1.80;;;;;;;;;;5033979;28;20395;-75
2021/09/30 04:04:48;;;;;;;2.87;1.60;;;;;;;;;;5033846;28;20494;-74
2021/09/30 04:07:14;;;;;;;4.63;1.70;;;;;;;;;;5039991;28;20411;-74
2021/09/30 04:09:40;;;;;;;2.83;1.47;;;;;;;;;;5034029;28;20609;-74
2021/09/30 04:12:17;;;;;;;3.63;1.70;;;;;;;;;;5033765;28;20438;-75
2021/09/30 04:14:53;;;;;;;1.73;1.40;;;;;;;;;;5034192;28;20395;-75
2021/09/30 04:17:29;;;;;;;2.03;1.27;;;;;;;;;;5033722;28;20430;-75
2021/09/30 04:19:59;;;;;;;8.10;1.80;;;;;;;;;;5032512;28;20441;-77
2021/09/30 04:22:25;;;;;;;5.93;1.60;;;;;;;;;;5034147;28;20415;-74
2021/09/30 04:24:51;;;;;;;3.00;1.50;;;;;;;;;;5047276;28;20421;-75
2021/09/30 04:27:23;;;;;;;4.53;2.13;;;;;;;;;;5058034;28;20938;-75
2021/09/30 04:29:59;;;;;;;6.27;2.07;;;;;;;;;;5051364;28;20783;-75
2021/09/30 04:32:29;;;;;;;5.10;2.03;;;;;;;;;;5037831;28;20842;-75
2021/09/30 04:34:55;;;;;;;17.83;2.90;;;;;;;;;;5035674;28;20457;-75
2021/09/30 04:37:25;;;;;;;6.60;1.57;;;;;;;;;;5037569;28;20744;-74
2021/09/30 04:39:53;;;;;;;4.70;1.97;;;;;;;;;;5037141;28;20824;-75
2021/09/30 04:42:29;;;;;;;5.70;2.00;;;;;;;;;;5037627;28;20858;-75
2021/09/30 04:44:56;;;;;;;3.93;1.73;;;;;;;;;;5048701;28;20410;-74
2021/09/30 04:47:38;;;;;;;4.17;1.80;;;6.60;1.00;;;;;;5039326;28;20510;-75
2021/09/30 04:50:05;;;;;;;6.33;2.27;;;;;;;;;;5037192;28;20506;-75
2021/09/30 04:52:35;;;;;;;3.87;1.80;;;;;;;;;;5037274;28;20407;-75
2021/09/30 04:55:05;;;;;;;1.57;1.10;;;;;;;;;;5051163;28;20799;-76
2021/09/30 04:57:35;;;;;;;2.80;2.10;;;;;;;;;;5055879;28;20414;-75
2021/09/30 05:00:01;;;;;;;3.87;1.83;;;;;;;;;;5046412;28;20963;-75
2021/09/30 05:02:29;;;;;;;8.80;1.87;;;;;;;;;;5057314;28;20850;-75
2021/09/30 05:04:55;;;;;;;6.03;2.23;;;;;;;;;;5057155;28;20456;-74
2021/09/30 05:07:23;;;;;;;5.20;2.07;;;;;;;;;;5057092;28;20398;-75
2021/09/30 05:09:51;;;;;;;6.33;2.10;;;;;;;;;;5055136;28;20495;-76
2021/09/30 05:12:24;;;;;;;3.33;2.00;;;;;;;;;;5038343;28;20418;-75
2021/09/30 05:14:51;;;;;;;8.10;2.20;;;;;;;;;;5037532;28;20939;-75
2021/09/30 05:17:17;;;;;;;3.17;1.67;;;;;;;;;;5037058;28;20482;-75
2021/09/30 05:19:43;;;;;;;5.30;2.13;;;;;;;;;;5036822;28;20396;-75
2021/09/30 05:22:09;;;;;;;4.80;1.80;;;;;;;;;;5036821;28;20465;-75
2021/09/30 05:24:35;;;;;;;2.67;1.80;;;;;;;;;;5036758;28;20389;-75
2021/09/30 05:27:11;;;;;;;3.20;1.80;;;;;;;;;;5054893;28;20493;-75
2021/09/30 05:29:37;;;;;;;7.23;2.20;;;;;;;;;;5056270;28;20493;-74
2021/09/30 05:32:03;;;;;;;5.53;1.93;;;;;;;;;;5042427;28;20431;-75
2021/09/30 05:34:35;;;;;;;5.33;1.93;;;;;;;;;;5036543;28;20395;-75
2021/09/30 05:37:01;;;;;;;3.57;1.47;;;;;;;;;;5053934;28;20414;-75
2021/09/30 05:39:35;;;;;;;2.07;1.53;;;;;;;;;;5044014;28;20434;-75
2021/09/30 05:42:05;;;;;;;21.80;4.20;;;;;;;;;;5052293;28;21059;-75
2021/09/30 05:44:36;;;;;;;21.40;3.30;;;;;;;;;;5050227;28;20422;-75
2021/09/30 05:47:02;;;;;;;2.90;2.27;;;;;;;;;;5042292;28;20419;-74
2021/09/30 05:49:28;;;;;;;7.33;2.63;;;;;;;;;;5041099;28;20468;-75
2021/09/30 05:51:54;;;;;;;11.40;3.07;;;;;;;;;;5051488;28;20513;-74
2021/09/30 05:54:20;;;;;;;10.23;4.20;;;;;;;;;;5055858;28;20402;-75
2021/09/30 05:56:46;;;;;;;5.17;2.90;;;;;;;;;;5050714;28;20418;-74
2021/09/30 05:59:29;;;;;;;15.73;3.00;;;;;;;;;;5052359;28;20423;-74
2021/09/30 06:12:38;;;;;;;7.70;2.60;;;;;;;;;;5041484;28;20449;-74
2021/09/30 06:15:31;;;;;;;2.20;1.13;;;;;;;;;;5036159;28;20384;-76
2021/09/30 06:17:58;;;;;;;3.73;1.63;;;8.00;1.00;;;;;;5036930;28;20557;-75
2021/09/30 06:20:29;;;;;;;10.60;2.47;;;;;;;;;;5034363;28;20466;-76
2021/09/30 06:23:22;;;;;;;7.17;2.60;;;;;;;;;;5046486;28;20469;-74
2021/09/30 06:25:53;;;;;;;19.90;2.90;;;;;;;;;;5055207;28;20394;-75
2021/09/30 06:28:19;;;;;;;7.30;1.80;;;;;;;;;;5052397;28;20411;-75
2021/09/30 06:30:53;;;;;;;4.40;2.50;;;;;;;;;;5051151;28;20418;-75
2021/09/30 06:33:24;;;;;;;9.07;2.60;;;;;;;;;;5054759;28;20421;-74
2021/09/30 06:35:53;;;;;;;4.00;2.00;;;;;;;;;;5035437;28;20391;-75
2021/09/30 06:38:23;;;;;;;19.07;3.20;;;;;;;;;;5047526;28;20464;-75
2021/09/30 06:40:49;;;;;;;2.60;1.67;;;;;;;;;;5040715;28;20458;-75
2021/09/30 06:43:17;;;;;;;8.63;3.00;;;;;;;;;;5035066;28;20952;-75
2021/09/30 06:45:50;;;;;;;8.30;2.43;;;;;;;;;;5035496;28;20901;-74
2021/09/30 06:48:23;;;;;;;9.00;2.60;;;;;;;;;;5035037;28;20767;-75
2021/09/30 06:50:49;;;;;;;9.77;2.57;;;;;;;;;;5042351;28;20430;-74
2021/09/30 06:53:17;;;;;;;3.07;2.20;;;;;;;;;;5046669;28;20936;-74
2021/09/30 06:55:47;;;;;;;5.50;2.63;;;;;;;;;;5034081;28;20736;-74
2021/09/30 06:58:29;;;;;;;12.87;2.70;;;;;;;;;;5034853;28;20752;-74
2021/09/30 07:01:05;;;;;;;11.00;4.17;;;;;;;;;;5039656;28;20459;-75
2021/09/30 07:03:35;;;;;;;3.07;1.90;;;;;;;;;;5041055;28;20414;-74
2021/09/30 07:06:01;;;;;;;5.13;2.40;;;;;;;;;;5033372;28;20411;-75
2021/09/30 07:08:29;;;;;;;10.53;3.03;;;;;;;;;;5050568;28;20429;-75
2021/09/30 07:10:59;;;;;;;12.93;2.80;;;;;;;;;;5053048;28;20444;-74
2021/09/30 07:13:25;;;;;;;6.37;2.63;;;;;;;;;;5036864;28;20860;-74
2021/09/30 07:15:54;;;;;;;4.70;2.40;;;;;;;;;;5046566;28;20501;-74
2021/09/30 07:18:20;;;;;;;5.80;2.50;;;;;;;;;;5053546;28;20929;-75
2021/09/30 07:20:57;;;;;;;87.60;7.67;;;9.60;1.00;;;;;;5035769;28;20491;-74
2021/09/30 07:23:24;;;;;;;4.87;2.50;;;;;;;;;;5048371;28;20418;-73
2021/09/30 07:25:50;;;;;;;10.53;2.70;;;;;;;;;;5052615;28;20535;-73
2021/09/30 07:28:16;;;;;;;5.23;2.37;;;;;;;;;;5048355;28;20419;-74
2021/09/30 07:30:43;;;;;;;7.37;2.93;;;;;;;;;;5053748;28;20406;-73
2021/09/30 07:33:20;;;;;;;9.20;2.97;;;;;;;;;;5053444;28;20732;-73
2021/09/30 07:35:46;;;;;;;18.53;2.87;;;;;;;;;;5034401;28;20460;-73
2021/09/30 07:38:12;;;;;;;18.93;3.77;;;;;;;;;;5046159;28;20909;-73
2021/09/30 07:40:38;;;;;;;8.80;2.97;;;;;;;;;;5033987;28;20462;-74
2021/09/30 07:43:05;;;;;;;28.70;4.20;;;;;;;;;;5052231;28;20408;-74
2021/09/30 07:45:35;;;;;;;5.00;1.93;;;;;;;;;;5053763;28;20508;-74
2021/09/30 07:48:01;;;;;;;8.17;2.50;;;;;;;;;;5053949;28;20410;-74
2021/09/30 07:50:28;;;;;;;7.77;2.50;;;;;;;;;;5040650;28;20423;-74
2021/09/30 07:52:54;;;;;;;3.23;2.10;;;;;;;;;;5033964;28;20486;-74
2021/09/30 07:55:20;;;;;;;3.13;1.67;;;;;;;;;;5034924;28;20481;-73
2021/09/30 07:57:46;;;;;;;3.00;1.80;;;;;;;;;;5033804;28;20415;-73
2021/09/30 08:00:12;;;;;;;6.03;1.70;;;;;;;;;;5040045;28;20871;-73
2021/09/30 08:02:38;;;;;;;10.90;2.23;;;;;;;;;;5036760;28;20422;-74
2021/09/30 08:05:05;;;;;;;3.10;1.70;;;;;;;;;;5052822;28;20427;-73
2021/09/30 08:07:31;;;;;;;3.27;1.50;;;;;;;;;;5053430;28;20969;-74
2021/09/30 08:09:57;;;;;;;48.43;5.07;;;;;;;;;;5050526;28;20426;-74
2021/09/30 08:12:25;;;;;;;10.03;2.50;;;;;;;;;;5036339;28;20475;-74
2021/09/30 08:14:52;;;;;;;3.17;1.80;;;;;;;;;;5035085;28;20430;-74
2021/09/30 08:17:23;;;;;;;6.23;1.90;;;;;;;;;;5033290;28;20395;-73
2021/09/30 08:19:49;;;;;;;9.67;2.43;;;;;;;;;;5032000;28;20422;-74
2021/09/30 08:22:16;;;;;;;7.93;2.50;;;;;;;;;;5042441;28;20452;-73
2021/09/30 08:24:47;;;;;;;5.50;2.00;;;;;;;;;;5048026;28;20399;-74
2021/09/30 08:27:13;;;;;;;3.53;1.90;;;;;;;;;;5039215;28;20509;-74
2021/09/30 08:29:41;;;;;;;3.30;1.73;;;;;;;;;;5038344;28;20473;-74
2021/09/30 08:32:11;;;;;;;6.20;1.87;;;;;;;;;;5051908;28;20906;-74
2021/09/30 08:34:37;;;;;;;7.03;2.20;;;;;;;;;;5053165;28;20410;-73
2021/09/30 08:37:03;;;;;;;8.23;1.90;;;;;;;;;;5053003;28;20438;-73
2021/09/30 08:39:30;;;;;;;5.13;1.70;;;;;;;;;;5046306;28;20439;-74
2021/09/30 08:41:56;;;;;;;4.50;2.10;;;;;;;;;;5047666;28;20458;-74
2021/09/30 08:44:23;;;;;;;3.17;1.60;;;11.80;1.00;;;;;;5050310;28;20844;-74
2021/09/30 08:46:50;;;;;;;7.87;2.70;;;;;;;;;;5051400;28;20429;-74
2021/09/30 08:49:17;;;;;;;5.13;2.27;;;;;;;;;;5042451;28;20476;-74
2021/09/30 08:51:43;;;;;;;4.23;2.03;;;;;;;;;;5053198;28;20747;-74
2021/09/30 08:54:16;;;;;;;3.97;2.00;;;;;;;;;;5050600;28;20920;-74
2021/09/30 08:56:42;;;;;;;4.87;2.00;;;;;;;;;;5047703;28;20475;-74
2021/09/30 08:59:19;;;;;;;5.83;1.50;;;;;;;;;;5037720;28;20438;-74
2021/09/30 09:02:07;;;;;;;4.17;2.00;;;12.30;1.00;;;;;;5035862;28;20454;-74
2021/09/30 09:04:33;;;;;;;3.87;1.63;;;;;;;;;;5033101;28;20402;-75
2021/09/30 09:07:08;;;;;;;4.17;1.90;;;12.40;1.00;;;;;;5033147;28;20419;-74
2021/09/30 09:09:35;;;;;;;4.40;1.53;;;;;;;;;;5032955;28;20463;-74
2021/09/30 09:12:06;;;;;;;5.00;1.50;;;12.50;1.00;;;;;;5033069;28;20824;-74
2021/09/30 09:14:34;;;;;;;9.60;2.23;;;12.60;1.00;;;;;;5042855;28;20405;-74
2021/09/30 09:17:07;;;;;;;3.60;1.70;;;12.60;1.00;;;;;;5053522;28;20435;-73
2021/09/30 09:19:43;;;;;;;15.93;2.80;;;12.70;1.00;;;;;;5036375;28;20761;-74
2021/09/30 09:22:14;;;;;;;8.13;1.90;;;12.80;1.00;;;;;;5062776;28;20429;-74
2021/09/30 09:24:59;;;;;;;11.07;2.20;;;;;;;;;;5036102;28;20397;-74
2021/09/30 09:27:50;;;;;;;128.27;9.67;;;;;;;;;;5035577;28;20484;-74
2021/09/30 09:30:35;;;;;;;18.73;3.13;;;;;;;;;;5007865;28;20928;-74
2021/09/30 09:33:20;;;;;;;4.90;2.07;;;13.30;1.00;;;;;;5004018;28;20424;-74
2021/09/30 09:38:43;;;;;;;5.97;2.10;;;13.50;1.00;;;;;;5012566;28;20441;-74
2021/09/30 09:41:16;;;;;;;3.87;1.90;;;;;;;;;;5014080;28;20478;-74
2021/09/30 09:43:48;;;;;;;4.57;1.60;;;13.90;1.00;;;;;;5014147;28;20950;-75
2021/09/30 09:46:29;;;;;;;6.63;1.60;;;14.10;1.00;;;;;;5011065;28;20456;-74
2021/09/30 09:49:05;;;;;;;7.73;1.20;;;14.20;1.00;;;;;;4998027;28;20433;-75
2021/09/30 09:51:35;;;;;;;4.10;1.87;;;14.40;1.00;;;;;;5009428;28;20420;-75
2021/09/30 09:54:01;;;;;;;4.83;2.13;;;;;;;;;;5002961;28;20488;-75
2021/09/30 09:56:28;;;;;;;8.57;2.10;;;14.50;1.00;;;;;;4994391;28;20384;-75
2021/09/30 09:58:56;;;;;;;18.43;4.57;;;14.70;1.00;;;;;;5009396;28;20410;-75
2021/09/30 10:01:24;;;;;;;21.53;2.90;;;;;;;;;;5011631;28;20813;-74
2021/09/30 10:03:59;;;;;;;4.30;1.73;;;;;;;;;;4994425;28;20413;-75
2021/09/30 10:06:26;;;;;;;4.30;1.77;;;;;;;;;;5000940;28;20550;-75
2021/09/30 10:08:52;;;;;;;5.00;1.80;;;;;;;;;;5034357;28;20483;-74
2021/09/30 10:11:19;;;;;;;4.27;1.80;;;;;;;;;;5035737;28;20405;-75
2021/09/30 10:13:45;;;;;;;15.53;2.53;;;15.00;1.00;;;;;;5048143;28;20425;-75
2021/09/30 10:16:26;;;;;;;6.30;2.00;;;;;;;;;;5039192;28;20927;-75
2021/09/30 10:18:56;;;;;;;6.50;1.80;;;15.10;1.00;;;;;;5035523;28;20419;-74
2021/09/30 10:21:22;;;;;;;10.93;2.37;;;;;;;;;;5035194;28;20437;-74
2021/09/30 10:24:04;;;;;;;2.50;1.70;;;15.00;1.00;;;;;;5035157;28;20485;-74
2021/09/30 10:26:30;;;;;;;5.07;1.90;;;;;;;;;;5041909;28;20446;-74
2021/09/30 10:28:58;;;;;;;2.70;1.40;;;;;;;;;;5036816;28;20753;-74
2021/09/30 10:31:35;;;;;;;3.90;1.50;;;15.00;1.00;;;;;;5035131;28;20397;-74
2021/09/30 10:34:04;;;;;;;4.10;2.13;;;;;;;;;;5035293;28;20565;-74
2021/09/30 10:36:44;;;;;;;4.73;2.07;;;15.20;1.00;;;;;;5042459;28;20450;-74
2021/09/30 10:39:22;;;;;;;3.53;1.70;;;15.20;1.00;;;;;;5075227;28;20368;-74
2021/09/30 10:41:50;;;;;;;3.00;1.67;;;15.30;1.00;;;;;;5051975;28;20455;-74
2021/09/30 10:44:20;;;;;;;17.10;2.90;;;;;;;;;;5041507;28;20503;-74
2021/09/30 10:46:55;;;;;;;13.53;2.30;;;15.50;1.00;;;;;;5035077;28;20821;-74
2021/09/30 10:49:42;;;;;;;4.60;1.63;;;;;;;;;;5034898;28;20459;-75
2021/09/30 10:52:16;;;;;;;22.83;2.97;;;15.70;1.00;;;;;;5040338;28;20400;-75
2021/09/30 10:54:43;;;;;;;2.23;1.37;;;;;;;;;;5047643;28;20481;-74
2021/09/30 10:57:48;;;;;;;5.07;1.47;;;;;;;;;;5036561;28;20735;-75
2021/09/30 11:00:17;;;;;;;3.90;1.70;;;;;;;;;;4985144;28;20450;-75
2021/09/30 11:03:01;;;;;;;2.67;1.40;;;;;;;;;;4980376;28;20463;-75
2021/09/30 11:05:29;;;;;;;6.43;1.10;;;15.80;1.00;;;;;;4991461;28;20399;-74
2021/09/30 11:08:16;;;;;;;3.23;1.23;;;15.80;1.00;;;;;;5003360;28;20908;-74
2021/09/30 11:13:30;;;;;;;2.40;1.13;;;;;;;;;;4953760;29;20901;-75
2021/09/30 11:16:00;;;;;;;17.77;2.33;;;;;;;;;;4950998;29;20741;-75
2021/09/30 11:18:41;;;;;;;9.20;1.80;;;;;;;;;;4953298;29;20431;-74
2021/09/30 11:21:28;;;;;;;6.43;2.30;;;;;;;;;;4954135;29;20511;-74
2021/09/30 11:24:09;;;;;;;6.60;1.80;;;16.10;1.00;;;;;;4940364;29;20424;-74
2021/09/30 11:26:54;;;;;;;5.40;1.40;;;;;;;;;;4939994;29;20556;-74
2021/09/30 11:29:23;;;;;;;3.07;1.33;;;;;;;;;;4935090;29;20378;-74
2021/09/30 11:31:55;;;;;;;4.73;1.13;;;;;;;;;;5003554;28;20419;-74
2021/09/30 11:34:22;;;;;;;10.30;1.37;;;;;;;;;;5032429;28;20379;-74
2021/09/30 11:36:49;;;;;;;3.23;1.10;;;;;;;;;;5015138;28;20438;-74
2021/09/30 11:39:16;;;;;;;3.03;1.10;;;16.30;1.00;;;;;;5012341;28;20416;-75
2021/09/30 11:41:44;;;;;;;1.90;1.20;;;16.30;1.00;;;;;;5024983;28;20597;-75
2021/09/30 11:44:17;;;;;;;6.70;1.57;;;16.40;1.00;;;;;;5031626;28;20432;-74
2021/09/30 11:46:43;;;;;;;5.53;1.10;;;;;;;;;;5030666;28;20505;-74
2021/09/30 11:49:11;;;;;;;10.97;1.57;;;;;;;;;;5016093;28;20978;-75
2021/09/30 11:51:42;;;;;;;7.43;1.33;;;16.90;1.00;;;;;;5038849;28;20450;-75
2021/09/30 11:54:13;;;;;;;7.37;1.30;;;17.10;1.00;;;;;;5032713;28;20772;-74
2021/09/30 11:56:42;;;;;;;15.70;1.83;;;17.10;1.00;;;;;;5033932;28;20448;-74
2021/09/30 11:59:08;;;;;;;10.93;1.47;;;17.10;1.00;;;;;;5032551;28;20405;-75
2021/09/30 12:01:35;;;;;;;3.33;1.10;;;17.00;1.00;;;;;;5033774;28;20426;-75
2021/09/30 12:04:02;;;;;;;2.27;0.90;;;16.90;1.00;;;;;;5042956;28;20448;-74
2021/09/30 12:06:49;;;;;;;2.50;1.10;;;;;;;;;;5053552;28;20444;-75
2021/09/30 12:09:16;;;;;;;6.07;1.43;;;;;;;;;;5056300;28;20398;-75
2021/09/30 12:12:03;;;;;;;3.53;1.10;;;16.90;1.00;;;;;;5042735;28;20494;-74
2021/09/30 12:14:36;;;;;;;2.20;0.93;;;;;;;;;;5043472;28;20514;-75
2021/09/30 12:17:04;;;;;;;8.63;1.63;;;17.50;1.00;;;;;;5033486;28;20826;-75
2021/09/30 12:19:39;;;;;;;2.20;1.00;;;;;;;;;;5034079;28;20376;-74
2021/09/30 12:22:25;;;;;;;3.30;1.03;;;17.90;1.00;;;;;;5033588;28;20444;-74
2021/09/30 12:25:00;;;;;;;3.50;1.13;;;18.00;1.00;;;;;;5033165;28;20482;-74
2021/09/30 12:27:34;;;;;;;6.63;1.20;;;18.20;1.00;;;;;;5033775;28;20365;-74
2021/09/30 12:30:08;;;;;;;3.23;1.07;;;18.10;1.00;;;;;;5033294;28;20430;-74
2021/09/30 12:32:36;;;;;;;4.40;1.40;;;18.10;1.00;;;;;;5033688;28;20402;-74
2021/09/30 12:35:28;;;;;;;16.20;1.77;;;18.00;1.00;;;;;;5033480;28;20491;-74
2021/09/30 12:37:59;;;;;;;5.17;1.27;;;18.00;1.00;;;;;;5032267;28;20810;-74
2021/09/30 12:40:29;;;;;;;10.80;1.57;;;;;;;;;;5039324;28;20481;-74
2021/09/30 12:43:10;;;;;;;6.50;1.30;;;18.10;1.00;;;;;;5053039;28;20379;-73
2021/09/30 12:45:39;;;;;;;3.33;0.90;;;18.30;1.00;;;;;;5033377;28;20849;-74
2021/09/30 12:48:08;;;;;;;3.17;1.23;;;;;;;;;;5035871;28;20452;-74
2021/09/30 12:50:47;;;;;;;6.87;1.37;;;18.80;1.00;;;;;;5037204;28;20807;-74
2021/09/30 12:53:15;;;;;;;2.10;1.03;;;;;;;;;;5037361;28;20376;-74
2021/09/30 12:55:42;;;;;;;12.07;1.10;;;19.00;1.00;;;;;;5037306;28;20425;-74
2021/09/30 12:58:27;;;;;;;4.40;1.17;;;;;;;;;;5037080;28;20472;-73
2021/09/30 13:00:53;;;;;;;2.57;1.00;;;;;;;;;;5044784;28;20936;-73
2021/09/30 13:03:19;;;;;;;4.43;1.33;;;;;;;;;;5056831;28;20428;-74
2021/09/30 13:05:50;;;;;;;3.27;1.17;;;19.00;1.00;;;;;;5057008;28;20860;-74
2021/09/30 13:08:35;;;;;;;4.60;1.23;;;;;;;;;;5056900;28;20409;-74
2021/09/30 13:11:31;;;;;;;4.30;0.97;;;18.80;1.00;;;;;;5046933;28;20452;-74
2021/09/30 13:14:21;;;;;;;2.57;0.80;;;18.60;1.00;;;;;;5033909;28;20525;-74
2021/09/30 13:16:54;;;;;;;5.57;1.27;;;18.60;1.00;;;;;;5034668;28;20480;-74
2021/09/30 13:19:39;;;;;;;6.20;1.30;;;;;;;;;;5034989;28;20459;-73
2021/09/30 13:22:06;;;;;;;10.13;1.30;;;;;;;;;;5015890;28;20469;-74
2021/09/30 13:24:39;;;;;;;1.17;0.70;;;;;;;;;;5028922;28;20498;-73
2021/09/30 13:27:07;;;;;;;5.47;2.30;;;18.50;1.00;;;;;;5034526;28;20398;-73
2021/09/30 13:29:35;;;;;;;3.83;1.10;;;;;;;;;;5034411;28;20419;-73
2021/09/30 13:32:02;;;;;;;6.50;0.90;;;;;;;;;;5033669;28;20450;-73
2021/09/30 13:34:29;;;;;;;1.60;0.80;;;;;;;;;;5033998;28;20431;-74
2021/09/30 13:36:55;;;;;;;19.53;1.70;;;;;;;;;;5033345;28;20520;-74
2021/09/30 13:39:21;;;;;;;3.20;0.80;;;;;;;;;;5034246;28;20817;-74
2021/09/30 13:41:48;;;;;;;5.87;1.27;;;;;;;;;;5033150;28;20461;-74
2021/09/30 13:44:14;;;;;;;5.40;1.17;;;;;;;;;;5017156;28;20759;-74
2021/09/30 13:46:40;;;;;;;1.90;0.83;;;;;;;;;;5034135;28;20444;-74
2021/09/30 13:49:06;;;;;;;3.03;0.80;;;;;;;;;;5033985;28;20398;-74
2021/09/30 13:51:32;;;;;;;7.70;1.23;;;;;;;;;;5043672;28;20575;-73
2021/09/30 13:53:59;;;;;;;3.43;0.90;;;18.80;1.00;;;;;;5034766;28;20437;-73
2021/09/30 13:56:25;;;;;;;1.73;0.77;;;18.70;1.00;;;;;;5036150;28;20442;-73
2021/09/30 13:58:52;;;;;;;5.43;1.03;;;;;;;;;;5035311;28;20452;-74
2021/09/30 14:01:18;;;;;;;3.20;0.80;;;;;;;;;;5039821;28;20484;-73
2021/09/30 14:03:44;;;;;;;11.23;1.53;;;;;;;;;;5054865;28;20428;-73
2021/09/30 14:06:12;;;;;;;2.80;0.90;;;;;;;;;;5049881;28;20899;-73
2021/09/30 14:08:41;;;;;;;12.33;1.47;;;;;;;;;;5055061;28;20420;-74
2021/09/30 14:11:08;;;;;;;10.80;1.53;;;18.60;1.00;;;;;;5054427;28;20870;-75
2021/09/30 14:13:42;;;;;;;4.27;1.00;;;18.50;1.00;;;;;;5047030;28;20771;-75
2021/09/30 14:16:08;;;;;;;1.97;0.77;;;;;;;;;;5036797;28;20428;-75
2021/09/30 14:18:41;;;;;;;1.00;0.50;;;;;;;;;;5034127;28;20459;-75
2021/09/30 14:21:11;;;;;;;2.27;0.80;;;;;;;;;;5035659;28;20437;-78
2021/09/30 14:23:37;;;;;;;10.20;1.37;;;;;;;;;;5035366;28;20404;-78
2021/09/30 14:26:11;;;;;;;4.83;1.53;;;;;;;;;;5035155;28;20404;-78
2021/09/30 14:28:41;;;;;;;10.03;1.70;;;;;;;;;;5047900;28;20395;-79
2021/09/30 14:31:08;;;;;;;2.73;1.17;;;;;;;;;;5034079;28;20436;-77
2021/09/30 14:33:34;;;;;;;13.97;1.40;;;;;;;;;;5037803;28;20464;-77
2021/09/30 14:36:01;;;;;;;8.40;1.30;;;;;;;;;;5039095;28;20435;-77
2021/09/30 14:38:30;;;;;;;2.37;0.80;;;;;;;;;;5054289;28;20415;-75
2021/09/30 14:40:56;;;;;;;3.90;0.90;;;;;;;;;;5053746;28;20459;-75
2021/09/30 14:43:24;;;;;;;5.00;0.97;;;;;;;;;;5050689;28;20982;-77
2021/09/30 14:45:51;;;;;;;6.23;1.27;;;;;;;;;;5043876;28;20432;-74
2021/09/30 14:48:17;;;;;;;4.30;1.30;;;;;;;;;;5050946;28;20774;-74
2021/09/30 14:50:44;;;;;;;2.30;1.00;;;;;;;;;;5050242;28;20889;-74
2021/09/30 14:53:10;;;;;;;3.90;1.03;;;;;;;;;;5041746;28;20387;-74
2021/09/30 14:55:37;;;;;;;1.57;0.77;;;18.00;1.00;;;;;;5041900;28;20776;-76
2021/09/30 14:58:06;;;;;;;1.87;0.90;;;17.80;1.00;;;;;;5054667;28;20436;-74
2021/09/30 15:00:41;;;;;;;1.20;1.00;;;;;;;;;;5054817;28;20426;-74
2021/09/30 15:03:08;;;;;;;161.50;12.63;;;;;;;;;;5050392;28;20408;-76
2021/09/30 15:05:35;;;;;;;4.20;1.00;;;;;;;;;;5046205;28;20405;-74
2021/09/30 15:08:02;;;;;;;7.53;1.37;;;;;;;;;;5054041;28;20432;-73
2021/09/30 15:10:28;;;;;;;5.03;1.10;;;17.20;1.00;;;;;;5053369;28;20511;-73
2021/09/30 15:12:54;;;;;;;9.33;1.33;;;;;;;;;;5050211;28;20443;-74
2021/09/30 15:15:21;;;;;;;31.47;2.17;;;;;;;;;;5034065;28;20423;-73
2021/09/30 15:23:26;;;;;;;11.17;1.80;;;;;;;;;;5028416;28;20508;-73
2021/09/30 15:25:59;;;;;;;5.40;1.23;;;;;;;;;;5031953;28;20957;-74
2021/09/30 15:28:26;;;;;;;12.77;1.93;;;;;;;;;;5032203;28;20850;-73
2021/09/30 15:30:55;;;;;;;9.53;2.20;;;16.90;1.00;;;;;;5033741;28;20511;-73
2021/09/30 15:33:21;;;;;;;30.77;2.27;;;;;;;;;;5031646;28;20416;-74
2021/09/30 15:35:55;;;;;;;19.13;2.60;;;;;;;;;;5025882;28;20905;-74
2021/09/30 15:38:25;;;;;;;19.77;2.10;;;;;;;;;;5031070;28;20436;-73
2021/09/30 15:40:52;;;;;;;8.37;1.33;;;;;;;;;;5031540;28;20812;-73
2021/09/30 15:43:19;;;;;;;5.00;1.30;;;;;;;;;;5029844;28;20563;-73
2021/09/30 15:45:47;;;;;;;2.70;1.07;;;;;;;;;;5017080;28;20402;-75
2021/09/30 15:48:13;;;;;;;2.83;1.07;;;;;;;;;;5032068;28;20744;-75
2021/09/30 15:50:41;;;;;;;6.70;1.10;;;;;;;;;;5032374;28;20504;-77
2021/09/30 15:53:12;;;;;;;2.10;0.90;;;;;;;;;;5030149;28;20927;-75
2021/09/30 15:55:38;;;;;;;3.40;1.30;;;;;;;;;;5013216;28;20407;-76
2021/09/30 15:58:06;;;;;;;6.63;1.17;;;;;;;;;;5039766;28;20409;-75
2021/09/30 16:00:42;;;;;;;10.90;1.47;;;16.60;1.00;;;;;;5053679;28;20500;-75
2021/09/30 16:03:08;;;;;;;11.33;1.70;;;;;;;;;;5052184;28;20394;-74
2021/09/30 16:05:34;;;;;;;8.63;1.43;;;;;;;;;;5041462;28;20428;-73
2021/09/30 16:08:23;;;;;;;3.47;1.00;;;16.40;1.00;;;;;;5033944;28;20369;-79
2021/09/30 16:10:49;;;;;;;3.07;0.80;;;16.30;1.00;;;;;;5032413;28;20512;-79
2021/09/30 16:13:16;;;;;;;2.30;1.00;;;;;;;;;;5033868;28;20482;-74
2021/09/30 16:15:42;;;;;;;5.00;1.10;;;;;;;;;;5047084;28;20744;-75
2021/09/30 16:18:08;;;;;;;9.60;1.60;;;;;;;;;;5051987;28;20454;-74
2021/09/30 16:20:35;;;;;;;14.33;1.97;;;;;;;;;;5053719;28;20490;-74
2021/09/30 16:23:01;;;;;;;2.50;1.10;;;;;;;;;;5053222;28;20369;-74
2021/09/30 16:25:27;;;;;;;5.23;1.23;;;;;;;;;;5044682;28;20442;-74
2021/09/30 16:27:54;;;;;;;7.73;1.27;;;16.00;1.00;;;;;;5053600;28;20400;-74
2021/09/30 16:30:24;;;;;;;8.97;1.50;;;;;;;;;;5051774;28;20418;-73
2021/09/30 16:32:50;;;;;;;6.87;1.50;;;;;;;;;;5033334;28;20906;-73
2021/09/30 16:35:16;;;;;;;9.13;1.50;;;;;;;;;;5033090;28;20370;-74
2021/09/30 16:37:42;;;;;;;7.53;1.27;;;;;;;;;;5035500;28;20405;-73
2021/09/30 16:40:08;;;;;;;8.53;1.70;;;;;;;;;;5035631;28;20377;-74
2021/09/30 16:42:41;;;;;;;3.43;1.60;;;;;;;;;;5053563;28;20460;-75
2021/09/30 16:45:08;;;;;;;3.30;1.10;;;;;;;;;;5052141;28;20393;-75
2021/09/30 16:47:35;;;;;;;3.97;1.30;;;;;;;;;;5052446;28;20422;-75
2021/09/30 16:50:01;;;;;;;2.30;1.10;;;;;;;;;;5052075;28;20405;-74
2021/09/30 16:52:29;;;;;;;3.87;1.20;;;;;;;;;;5036578;28;20417;-74
2021/09/30 16:54:59;;;;;;;3.50;1.20;;;;;;;;;;5033347;28;20395;-74
2021/09/30 16:57:26;;;;;;;3.10;1.17;;;;;;;;;;5033365;28;20415;-74
2021/09/30 16:59:54;;;;;;;1.83;1.30;;;;;;;;;;5033434;28;20416;-74
2021/09/30 17:02:20;;;;;;;4.60;1.47;;;;;;;;;;5033700;28;20856;-73
2021/09/30 17:04:54;;;;;;;17.70;2.20;;;;;;;;;;5045619;28;20384;-75
2021/09/30 17:07:20;;;;;;;2.93;1.20;;;;;;;;;;5039969;28;20897;-74
2021/09/30 17:09:59;;;;;;;5.07;1.40;;;;;;;;;;5032129;28;20393;-75
2021/09/30 17:12:30;;;;;;;7.63;1.60;;;;;;;;;;5033152;28;20450;-75
2021/09/30 17:14:59;;;;;;;5.30;1.70;;;;;;;;;;5033217;28;20449;-75
2021/09/30 17:17:30;;;;;;;5.50;1.50;;;;;;;;;;5032996;28;20905;-73
2021/09/30 17:20:00;;;;;;;17.47;2.40;;;;;;;;;;5033384;28;20402;-75
2021/09/30 17:22:26;;;;;;;14.97;1.63;;;;;;;;;;5032380;28;20453;-74
2021/09/30 17:24:52;;;;;;;1.63;1.10;;;;;;;;;;5033119;28;20465;-74
2021/09/30 17:27:18;;;;;;;5.17;1.20;;;;;;;;;;5036434;28;20401;-74
2021/09/30 17:29:44;;;;;;;2.30;1.20;;;;;;;;;;5038726;28;20422;-75
2021/09/30 17:32:35;;;;;;;3.40;1.20;;;;;;;;;;5039901;28;20426;-79